Chagrin Falls, OH (44022)

9:59 PM EDT on August 03, 2015 (GMT -0400)
Bell Street Pepper Patch | | Change Station
CLOSE
Current Station
Personal Weather Station
Location: Chagrin Falls, OH
Elevation: 1010 ft
Nearby Weather Stations

Elev 1010 ft 41.43 °N, 81.38 °W | Updated 0 second ago

Scattered Clouds
Scattered Clouds
66.4 °F
Feels Like 66.4 °F
N
0.0
Wind Variable Wind from North
Gusts 0.0 mph

Today
High -- | Low -- °F
--% Chance of Precip.
Yesterday
High -- | Low -- °F
Precip. -- in
6:22 AM 8:40 PM
Waning Gibbous, 82% visible
Pressure 29.84 in
Visibility 7.0 miles
Clouds Few 3000 ft
Scattered Clouds 5000 ft
Dew Point 63 °F
Humidity 88%
Rainfall 0.12 in
Snow Depth Not available.
UV 0 out of 12
Pollen 3.90 out of 12
Air Quality Not available.
Flu Activity Not available.
METAR KCGF 040145Z 11004KT 7SM FEW030 SCT050 19/18 A2984 RMK TS E MVD SE

More Conditions Fewer Conditions

Pressure 29.84 in
Visibility 7.0 miles
Clouds Few 3000 ft
Scattered Clouds 5000 ft
Dew Point 63 °F
Humidity 88%
Rainfall 0.12 in
Snow Depth Not available.
UV 0 out of 12
Pollen 3.90 out of 12
Air Quality Not available.
Flu Activity Not available.
METAR KCGF 040145Z 11004KT 7SM FEW030 SCT050 19/18 A2984 RMK TS E MVD SE

More Conditions Fewer Conditions

10-Day Weather Forecast

×

Almanac

Astronomy

Aug. 03, 2015 Rise Set
Actual Time
Civil Twilight
Nautical Twilight
Astronomical Twilight
Moon
Length of Visible Light
Length of Day
Tomorrow will be .
, % of the Moon is Illuminated

Today's Extremes

State Highs State Lows

Community

WunderPhotos

Upload Photos

1,843,820 photos uploaded!

WunderBlogs® & News

Nearby

Air Quality

  Air Quality AQ Index Pollutant
Not available.

Snow Depth

Station Depth Elevation

Earthquake Activity

City Distance Mag. Time & Date
Minimum magnitude displayed is 2.5.

Coastal Water Temperatures

Place Temperature

Stations

Nearby Weather Stations

Station Location Temp. Windchill Dew Point Humidity Wind Precip. Elev Updated Type